Time;durP1;ratioP1;P1;durP2;ratioP2;P2;SDS_P1;SDS_P2;PMS_P1;PMS_P2;Temp;Humidity;BMP_temperature;BMP_pressure;BME280_temperature;BME280_humidity;BME280_pressure;Samples;Min_cycle;Max_cycle;Signal;HPM_P1;HPM_P2
2023/01/26 00:01:59;;;;;;;0.10;0.10;;;;;;;;;;4147917;28;20417;-46
2023/01/26 00:04:00;;;;;;;0.28;0.15;;;;;;;;;;4156905;28;20115;-46
2023/01/26 00:06:06;;;;;;;0.20;0.20;;;;;;;;;;4151306;28;20462;-46
2023/01/26 00:08:08;;;;;;;0.15;0.10;;;;;;;;;;4178963;28;20060;-47
2023/01/26 00:10:10;;;;;;;0.28;0.13;;;;;;;;;;4152823;28;20053;-50
2023/01/26 00:12:11;;;;;;;0.15;0.15;;;;;;;;;;4163937;28;20107;-46
2023/01/26 00:14:13;;;;;;;0.10;0.10;;;;;;;;;;4151268;28;20069;-46
2023/01/26 00:16:14;;;;;;;0.30;0.20;;;;;;;;;;4162473;28;20076;-44
2023/01/26 00:18:16;;;;;;;0.13;0.13;;;;;;;;;;4163509;28;20061;-48
2023/01/26 00:20:17;;;;;;;0.10;0.10;;;;;;;;;;4155426;28;20100;-46
2023/01/26 00:22:18;;;;;;;0.10;0.10;;;;;;;;;;4158347;28;20054;-48
2023/01/26 00:24:20;;;;;;;0.10;0.10;;;;;;;;;;4149295;28;20064;-45
2023/01/26 00:26:23;;;;;;;0.10;0.10;;;;;;;;;;4163731;28;20504;-46
2023/01/26 00:28:24;;;;;;;0.13;0.13;;;;;;;;;;4163753;28;20056;-48
2023/01/26 00:30:26;;;;;;;0.20;0.20;;;;;;;;;;4152780;28;20108;-47
2023/01/26 00:32:27;;;;;;;0.20;0.20;;;;;;;;;;4160311;28;20053;-48
2023/01/26 00:34:28;;;;;;;0.10;0.10;;;;;;;;;;4158848;28;20100;-47
2023/01/26 00:36:29;;;;;;;0.32;0.30;;;;;;;;;;4162066;28;20508;-48
2023/01/26 00:38:30;;;;;;;0.10;0.10;;;;;;;;;;4162478;28;20057;-47
2023/01/26 00:40:32;;;;;;;0.20;0.10;;;;;;;;;;4150387;28;20414;-47
2023/01/26 00:42:33;;;;;;;0.10;0.10;;;;;;;;;;4162418;28;20053;-46
2023/01/26 00:44:39;;;;;;;0.20;0.20;;;;;;;;;;4163224;28;20386;-48
2023/01/26 00:46:41;;;;;;;0.32;0.10;;;;;;;;;;4153191;28;20065;-45
2023/01/26 00:48:42;;;;;;;0.10;0.10;;;;;;;;;;4158991;28;20057;-47
2023/01/26 00:50:43;;;;;;;0.10;0.10;;;;;;;;;;4149703;28;20053;-45
2023/01/26 00:52:45;;;;;;;0.52;0.20;;;;;;;;;;4158276;28;20050;-46
2023/01/26 00:54:46;;;;;;;0.20;0.10;;;;;;;;;;4153222;28;20053;-46
2023/01/26 00:56:49;;;;;;;0.30;0.15;;;;;;;;;;4163072;28;20053;-47
2023/01/26 00:58:50;;;;;;;0.20;0.20;;;;;;;;;;4128961;28;20049;-45
2023/01/26 01:00:52;;;;;;;0.10;0.10;;;;;;;;;;4158682;28;20650;-45
2023/01/26 01:02:55;;;;;;;0.10;0.10;;;;;;;;;;4160891;28;20053;-47
2023/01/26 01:04:56;;;;;;;0.10;0.10;;;;;;;;;;4163052;28;20111;-50
2023/01/26 01:06:58;;;;;;;0.20;0.10;;;;;;;;;;4149147;28;20058;-46
2023/01/26 01:08:59;;;;;;;0.32;0.20;;;;;;;;;;4162550;28;20065;-49
2023/01/26 01:11:08;;;;;;;0.10;0.10;;;;;;;;;;4162273;28;20515;-48
2023/01/26 01:13:09;;;;;;;0.43;0.28;;;;;;;;;;4145444;28;20050;-49
2023/01/26 01:15:10;;;;;;;0.20;0.10;;;;;;;;;;4161004;28;20128;-46
2023/01/26 01:17:13;;;;;;;0.22;0.20;;;;;;;;;;4178027;28;20053;-50
2023/01/26 01:19:16;;;;;;;0.22;0.10;;;;;;;;;;4162890;28;20099;-46
2023/01/26 01:21:18;;;;;;;0.10;0.10;;;;;;;;;;4151157;28;20482;-47
2023/01/26 01:23:19;;;;;;;0.10;0.10;;;;;;;;;;4176152;28;20107;-47
2023/01/26 01:25:20;;;;;;;0.20;0.10;;;;;;;;;;4164737;28;20064;-47
2023/01/26 01:27:21;;;;;;;0.10;0.10;;;;;;;;;;4161343;28;20060;-47
2023/01/26 01:29:23;;;;;;;0.20;0.10;;;;;;;;;;4161323;28;20495;-45
2023/01/26 01:31:24;;;;;;;0.15;0.10;;;;;;;;;;4167063;28;20049;-46
2023/01/26 01:33:26;;;;;;;0.10;0.10;;;;;;;;;;4160062;28;20477;-51
2023/01/26 01:35:28;;;;;;;0.13;0.10;;;;;;;;;;4178997;28;20507;-47
2023/01/26 01:37:30;;;;;;;0.17;0.17;;;;;;;;;;4171000;28;20100;-47
2023/01/26 01:39:31;;;;;;;0.05;0.05;;;;;;;;;;4155971;28;20057;-47
2023/01/26 01:41:33;;;;;;;0.43;0.20;;;;;;;;;;4178750;28;20052;-47
2023/01/26 01:43:35;;;;;;;0.38;0.30;;;;;;;;;;4157309;28;20424;-47
2023/01/26 01:45:54;;;;;;;0.20;0.10;;;;;;;;;;4169877;28;20064;-50
2023/01/26 01:47:58;;;;;;;0.10;0.10;;;;;;;;;;4161438;28;20120;-47
2023/01/26 01:50:03;;;;;;;0.10;0.10;;;;;;;;;;4161431;28;20057;-48
2023/01/26 01:52:09;;;;;;;0.30;0.30;;;;;;;;;;4145145;28;20271;-47
2023/01/26 01:54:13;;;;;;;0.10;0.10;;;;;;;;;;4160898;28;20103;-51
2023/01/26 01:56:20;;;;;;;0.30;0.20;;;;;;;;;;4145662;28;20513;-46
2023/01/26 01:58:22;;;;;;;0.10;0.10;;;;;;;;;;4128827;28;20138;-45
2023/01/26 02:00:23;;;;;;;0.30;0.13;;;;;;;;;;4151928;28;20124;-48
2023/01/26 02:02:25;;;;;;;0.10;0.10;;;;;;;;;;4178780;28;20095;-46
2023/01/26 02:04:27;;;;;;;0.10;0.10;;;;;;;;;;4178167;28;20049;-50
2023/01/26 02:06:34;;;;;;;0.10;0.10;;;;;;;;;;4132021;28;20568;-47
2023/01/26 02:08:38;;;;;;;0.13;0.10;;;;;;;;;;4144928;28;20057;-46
2023/01/26 02:10:41;;;;;;;0.10;0.10;;;;;;;;;;4160608;28;20115;-45
2023/01/26 02:12:42;;;;;;;0.13;0.13;;;;;;;;;;4144305;28;20544;-45
2023/01/26 02:14:46;;;;;;;0.40;0.40;;;;;;;;;;4177522;28;20091;-47
2023/01/26 02:16:49;;;;;;;0.20;0.10;;;;;;;;;;4153670;28;20553;-46
2023/01/26 02:18:50;;;;;;;0.10;0.10;;;;;;;;;;4172905;28;20053;-45
2023/01/26 02:20:56;;;;;;;0.10;0.10;;;;;;;;;;4164825;28;20057;-45
2023/01/26 02:22:59;;;;;;;0.57;0.13;;;;;;;;;;4147394;28;20110;-50
2023/01/26 02:25:06;;;;;;;0.22;0.20;;;;;;;;;;4163636;28;20408;-48
2023/01/26 02:27:07;;;;;;;0.20;0.10;;;;;;;;;;4164172;28;20824;-46
2023/01/26 02:29:10;;;;;;;0.00;0.00;;;;;;;;;;4134037;28;20081;-45
2023/01/26 02:31:16;;;;;;;0.10;0.10;;;;;;;;;;4177094;28;20131;-47
2023/01/26 02:33:23;;;;;;;0.98;0.20;;;;;;;;;;4139303;28;20057;-51
2023/01/26 02:35:29;;;;;;;0.50;0.20;;;;;;;;;;4148424;28;20073;-49
2023/01/26 02:37:30;;;;;;;0.28;0.25;;;;;;;;;;4180285;28;20158;-46
2023/01/26 02:39:43;;;;;;;0.10;0.10;;;;;;;;;;4175937;28;20062;-45
2023/01/26 02:44:09;;;;;;;0.13;0.13;;;;;;;;;;4177628;28;20488;-46
2023/01/26 02:46:11;;;;;;;0.30;0.20;;;;;;;;;;4153672;28;20050;-52
2023/01/26 02:49:45;;;;;;;0.10;0.10;;;;;;;;;;4171157;28;20053;-47
2023/01/26 02:50:38;;;;;;;0.10;0.10;;;;;;;;;;4178798;28;20429;-46
2023/01/26 02:52:39;;;;;;;0.10;0.10;;;;;;;;;;4163951;28;20057;-46
2023/01/26 02:57:06;;;;;;;0.15;0.15;;;;;;;;;;4179205;28;20060;-48
2023/01/26 02:59:07;;;;;;;0.20;0.20;;;;;;;;;;4163455;28;20054;-48
2023/01/26 03:01:09;;;;;;;0.10;0.10;;;;;;;;;;4164755;28;20119;-45
2023/01/26 03:03:40;;;;;;;0.10;0.10;;;;;;;;;;4181392;28;20060;-47
2023/01/26 03:05:41;;;;;;;0.10;0.10;;;;;;;;;;4179304;28;20475;-47
2023/01/26 03:07:43;;;;;;;0.10;0.10;;;;;;;;;;4178693;28;20435;-45
2023/01/26 03:09:45;;;;;;;0.10;0.10;;;;;;;;;;4170148;28;20481;-47
2023/01/26 03:11:46;;;;;;;0.20;0.17;;;;;;;;;;4176772;28;20138;-45
2023/01/26 03:13:47;;;;;;;0.10;0.10;;;;;;;;;;4179999;28;20061;-45
2023/01/26 03:15:53;;;;;;;0.20;0.20;;;;;;;;;;4179726;28;20049;-47
2023/01/26 03:27:28;;;;;;;0.20;0.10;;;;;;;;;;4170932;28;20053;-47
2023/01/26 03:29:35;;;;;;;0.20;0.10;;;;;;;;;;4151615;28;20521;-46
2023/01/26 03:31:37;;;;;;;0.20;0.20;;;;;;;;;;4146573;28;20419;-47
2023/01/26 03:33:38;;;;;;;0.17;0.13;;;;;;;;;;4146279;28;20517;-46
2023/01/26 03:35:40;;;;;;;0.35;0.10;;;;;;;;;;4146719;28;20053;-50
2023/01/26 03:37:42;;;;;;;0.17;0.17;;;;;;;;;;4158805;28;20118;-47
2023/01/26 03:56:16;;;;;;;;;;;;;;;;;;4177472;28;20052;-46
2023/01/26 03:58:19;;;;;;;0.20;0.20;;;;;;;;;;4158092;28;19929;-45
2023/01/26 04:00:21;;;;;;;0.47;0.20;;;;;;;;;;4130137;28;20125;-45
2023/01/26 04:09:28;;;;;;;0.10;0.10;;;;;;;;;;4149689;28;20108;-47
2023/01/26 04:11:30;;;;;;;0.45;0.20;;;;;;;;;;4157658;28;20180;-46
2023/01/26 04:23:17;;;;;;;0.10;0.10;;;;;;;;;;4161372;28;20056;-45
2023/01/26 04:25:20;;;;;;;0.10;0.10;;;;;;;;;;4161588;28;20049;-47
2023/01/26 04:27:22;;;;;;;0.38;0.10;;;;;;;;;;4162179;28;20053;-46
2023/01/26 04:29:23;;;;;;;0.38;0.20;;;;;;;;;;4162124;28;20084;-45
2023/01/26 04:31:25;;;;;;;0.10;0.10;;;;;;;;;;4179959;28;20457;-47
2023/01/26 04:33:26;;;;;;;0.40;0.20;;;;;;;;;;4162182;28;20057;-46
2023/01/26 04:35:28;;;;;;;0.15;0.10;;;;;;;;;;4166593;28;20052;-47
2023/01/26 04:37:29;;;;;;;0.10;0.10;;;;;;;;;;4178415;28;20107;-45
2023/01/26 04:39:30;;;;;;;0.90;0.17;;;;;;;;;;4151087;28;20371;-44
2023/01/26 04:41:33;;;;;;;0.10;0.10;;;;;;;;;;4178728;28;20064;-46
2023/01/26 04:43:39;;;;;;;0.35;0.10;;;;;;;;;;4178255;28;20052;-45
2023/01/26 04:45:40;;;;;;;0.10;0.10;;;;;;;;;;4177733;28;20053;-47
2023/01/26 04:47:42;;;;;;;0.10;0.10;;;;;;;;;;4178526;28;20134;-46
2023/01/26 04:49:43;;;;;;;0.10;0.10;;;;;;;;;;4179535;28;20338;-47
2023/01/26 04:51:45;;;;;;;0.20;0.20;;;;;;;;;;4162050;28;20103;-49
2023/01/26 04:53:48;;;;;;;0.38;0.32;;;;;;;;;;4161586;28;20405;-49
2023/01/26 04:55:49;;;;;;;0.17;0.10;;;;;;;;;;4177798;28;20045;-49
2023/01/26 04:57:51;;;;;;;0.10;0.10;;;;;;;;;;4178259;28;20052;-50
2023/01/26 04:59:53;;;;;;;0.10;0.10;;;;;;;;;;4178094;28;20057;-50
2023/01/26 05:01:55;;;;;;;0.13;0.10;;;;;;;;;;4169276;28;20477;-47
2023/01/26 05:04:00;;;;;;;0.75;0.20;;;;;;;;;;4175237;28;20115;-50
2023/01/26 05:06:02;;;;;;;0.10;0.10;;;;;;;;;;4169717;28;20056;-48
2023/01/26 05:08:05;;;;;;;0.20;0.10;;;;;;;;;;4178017;28;20049;-48
2023/01/26 05:10:09;;;;;;;0.10;0.10;;;;;;;;;;4177302;28;20456;-47
2023/01/26 05:12:34;;;;;;;0.20;0.20;;;;;;;;;;4179444;28;20119;-45
2023/01/26 05:14:54;;;;;;;0.10;0.10;;;;;;;;;;4179134;28;20060;-46
2023/01/26 05:17:05;;;;;;;0.20;0.20;;;;;;;;;;4179381;28;20049;-47
2023/01/26 05:19:21;;;;;;;0.20;0.15;;;;;;;;;;4161484;28;20076;-47
2023/01/26 05:21:32;;;;;;;0.10;0.10;;;;;;;;;;4169750;28;20111;-50
2023/01/26 05:23:34;;;;;;;0.20;0.20;;;;;;;;;;4178241;28;20045;-47
2023/01/26 05:26:05;;;;;;;1.75;0.20;;;;;;;;;;4160552;28;20405;-48
2023/01/26 05:28:15;;;;;;;0.15;0.15;;;;;;;;;;4165342;28;20087;-46
2023/01/26 05:30:17;;;;;;;0.13;0.10;;;;;;;;;;4160363;28;20065;-45
2023/01/26 05:32:19;;;;;;;0.30;0.17;;;;;;;;;;4168236;28;20065;-47
2023/01/26 05:34:20;;;;;;;0.30;0.20;;;;;;;;;;4172403;28;20585;-49
2023/01/26 05:36:21;;;;;;;0.15;0.10;;;;;;;;;;4161248;28;20057;-46
2023/01/26 05:38:23;;;;;;;0.40;0.30;;;;;;;;;;4177794;28;20111;-46
2023/01/26 05:40:25;;;;;;;0.10;0.10;;;;;;;;;;4177325;28;20485;-47
2023/01/26 05:42:27;;;;;;;0.28;0.28;;;;;;;;;;4177847;28;20131;-50
2023/01/26 05:44:47;;;;;;;0.10;0.10;;;;;;;;;;4163875;28;20061;-47
2023/01/26 05:46:50;;;;;;;0.40;0.22;;;;;;;;;;4172349;28;20053;-45
2023/01/26 05:48:52;;;;;;;0.20;0.20;;;;;;;;;;4170325;28;20115;-47
2023/01/26 05:50:55;;;;;;;0.30;0.20;;;;;;;;;;4177591;28;20555;-47
2023/01/26 05:52:56;;;;;;;1.75;0.30;;;;;;;;;;4161189;28;20057;-47
2023/01/26 05:54:57;;;;;;;1.63;0.20;;;;;;;;;;4177035;28;20386;-48
2023/01/26 05:56:59;;;;;;;2.83;0.30;;;;;;;;;;4180763;28;20126;-47
2023/01/26 05:59:01;;;;;;;0.25;0.25;;;;;;;;;;4181147;28;20110;-47
2023/01/26 06:01:04;;;;;;;1.13;0.40;;;;;;;;;;4173280;28;20107;-49
2023/01/26 06:03:08;;;;;;;0.30;0.20;;;;;;;;;;4168759;28;20063;-46
2023/01/26 06:05:10;;;;;;;0.30;0.22;;;;;;;;;;4195212;28;20104;-45
2023/01/26 06:07:12;;;;;;;1.77;0.30;;;;;;;;;;4179073;28;20099;-45
2023/01/26 06:09:21;;;;;;;0.70;0.30;;;;;;;;;;4177909;28;20328;-45
2023/01/26 06:11:38;;;;;;;0.30;0.30;;;;;;;;;;4195636;28;20060;-47
2023/01/26 06:13:44;;;;;;;1.15;0.32;;;;;;;;;;4178397;28;20056;-47
2023/01/26 06:15:55;;;;;;;1.65;0.20;;;;;;;;;;4194755;28;20573;-46
2023/01/26 06:18:00;;;;;;;0.47;0.28;;;;;;;;;;4195234;28;20557;-47
2023/01/26 06:20:02;;;;;;;0.65;0.30;;;;;;;;;;4171567;28;20158;-48
2023/01/26 06:22:09;;;;;;;1.75;0.30;;;;;;;;;;4151846;28;20457;-46
2023/01/26 06:24:13;;;;;;;1.55;0.30;;;;;;;;;;4158073;28;20061;-48
2023/01/26 06:26:15;;;;;;;0.82;0.30;;;;;;;;;;4145399;28;20057;-47
2023/01/26 06:28:16;;;;;;;0.70;0.30;;;;;;;;;;4150506;28;20532;-45
2023/01/26 06:30:18;;;;;;;2.65;0.40;;;;;;;;;;4131363;28;20054;-45
2023/01/26 06:32:19;;;;;;;2.25;0.40;;;;;;;;;;4160534;28;20087;-44
2023/01/26 06:34:25;;;;;;;1.23;0.50;;;;;;;;;;4175827;28;20053;-45
2023/01/26 06:36:27;;;;;;;0.30;0.22;;;;;;;;;;4167927;28;20050;-48
2023/01/26 06:38:29;;;;;;;1.00;0.30;;;;;;;;;;4153755;28;20703;-45
2023/01/26 06:40:31;;;;;;;2.80;0.52;;;;;;;;;;4170127;28;20673;-44
2023/01/26 06:42:33;;;;;;;1.33;0.52;;;;;;;;;;4166419;28;20057;-48
2023/01/26 06:44:34;;;;;;;2.28;0.45;;;;;;;;;;4175791;28;20210;-45
2023/01/26 06:46:36;;;;;;;1.92;0.43;;;;;;;;;;4172548;28;20057;-48
2023/01/26 06:48:38;;;;;;;1.70;0.47;;;;;;;;;;4168118;28;20065;-48
2023/01/26 06:50:39;;;;;;;0.50;0.20;;;;;;;;;;4169008;28;20115;-45
2023/01/26 06:52:43;;;;;;;0.52;0.20;;;;;;;;;;4163138;28;20053;-47
2023/01/26 06:55:02;;;;;;;1.02;0.30;;;;;;;;;;4172395;28;20086;-45
2023/01/26 06:57:24;;;;;;;0.30;0.30;;;;;;;;;;4167162;28;20060;-46
2023/01/26 06:59:49;;;;;;;2.33;0.30;;;;;;;;;;4167459;28;20048;-48
2023/01/26 07:02:11;;;;;;;;;;;;;;;;;;4184138;28;20099;-47
2023/01/26 07:04:13;;;;;;;2.20;0.38;;;;;;;;;;4168952;28;19970;-48
2023/01/26 07:06:15;;;;;;;0.77;0.40;;;;;;;;;;4181183;28;20052;-46
2023/01/26 07:08:16;;;;;;;0.63;0.30;;;;;;;;;;4174790;28;20431;-47
2023/01/26 07:10:18;;;;;;;0.63;0.40;;;;;;;;;;4175421;28;20102;-47
2023/01/26 07:12:19;;;;;;;1.75;0.20;;;;;;;;;;4175540;28;20487;-49
2023/01/26 07:14:21;;;;;;;0.80;0.28;;;;;;;;;;4177509;28;20060;-48
2023/01/26 07:16:22;;;;;;;1.02;0.60;;;;;;;;;;4172828;28;20067;-45
2023/01/26 07:18:23;;;;;;;2.22;0.30;;;;;;;;;;4177332;28;20057;-48
2023/01/26 07:20:25;;;;;;;0.70;0.20;;;;;;;;;;4177658;28;20416;-45
2023/01/26 07:22:26;;;;;;;0.60;0.30;;;;;;;;;;4176314;28;20091;-49
2023/01/26 07:24:28;;;;;;;0.68;0.35;;;;;;;;;;4172376;28;20117;-49
2023/01/26 07:26:29;;;;;;;1.98;0.60;;;;;;;;;;4168740;28;20083;-47
2023/01/26 07:28:33;;;;;;;0.98;0.25;;;;;;;;;;4166840;28;20065;-45
2023/01/26 07:30:34;;;;;;;0.65;0.20;;;;;;;;;;4165962;28;20044;-46
2023/01/26 07:32:35;;;;;;;1.33;0.30;;;;;;;;;;4158659;28;20476;-45
2023/01/26 07:34:37;;;;;;;0.20;0.20;;;;;;;;;;4163782;28;20057;-50
2023/01/26 07:36:39;;;;;;;2.03;0.43;;;;;;;;;;4170421;28;20069;-43
2023/01/26 07:38:40;;;;;;;1.13;0.60;;;;;;;;;;4152485;28;20195;-44
2023/01/26 07:40:41;;;;;;;1.88;0.43;;;;;;;;;;4158641;28;20049;-46
2023/01/26 07:42:43;;;;;;;2.28;0.30;;;;;;;;;;4167681;28;20057;-49
2023/01/26 07:44:54;;;;;;;1.73;0.20;;;;;;;;;;4160425;28;20534;-48
2023/01/26 07:46:57;;;;;;;1.55;0.43;;;;;;;;;;4173075;28;20145;-45
2023/01/26 07:48:58;;;;;;;0.22;0.20;;;;;;;;;;4164262;28;20110;-47
2023/01/26 07:51:01;;;;;;;2.28;0.30;;;;;;;;;;4159589;28;20477;-45
2023/01/26 07:53:02;;;;;;;1.15;0.47;;;;;;;;;;4168000;28;20067;-45
2023/01/26 07:55:03;;;;;;;0.40;0.20;;;;;;;;;;4161090;28;20044;-50
2023/01/26 07:57:07;;;;;;;0.95;0.40;;;;;;;;;;4161656;28;20977;-46
2023/01/26 07:59:10;;;;;;;0.98;0.32;;;;;;;;;;4163432;28;20059;-47
2023/01/26 08:01:12;;;;;;;0.22;0.20;;;;;;;;;;4160416;28;20057;-48
2023/01/26 08:03:14;;;;;;;1.30;0.63;;;;;;;;;;4161953;28;20060;-49
2023/01/26 08:05:16;;;;;;;2.25;0.40;;;;;;;;;;4162700;28;20048;-48
2023/01/26 08:07:17;;;;;;;0.28;0.20;;;;;;;;;;4158497;28;20104;-46
2023/01/26 08:09:18;;;;;;;0.77;0.40;;;;;;;;;;4170935;28;20061;-48
2023/01/26 08:11:22;;;;;;;2.42;0.57;;;;;;;;;;4165656;28;21613;-48
2023/01/26 08:13:23;;;;;;;1.20;0.20;;;;;;;;;;4161441;28;20052;-48
2023/01/26 08:15:25;;;;;;;0.45;0.45;;;;;;;;;;4158148;28;20064;-47
2023/01/26 08:17:32;;;;;;;3.40;0.68;;;;;;;;;;4161793;28;20061;-46
2023/01/26 08:19:33;;;;;;;1.13;0.30;;;;;;;;;;4172865;28;20056;-45
2023/01/26 08:21:34;;;;;;;3.25;0.40;;;;;;;;;;4164026;28;20131;-47
2023/01/26 08:23:36;;;;;;;2.03;0.40;;;;;;;;;;4165986;28;20107;-47
2023/01/26 08:25:37;;;;;;;0.45;0.20;;;;;;;;;;4158537;28;20052;-45
2023/01/26 08:27:39;;;;;;;0.82;0.60;;;;;;;;;;4163624;28;20063;-48
2023/01/26 08:29:40;;;;;;;0.52;0.30;;;;;;;;;;4162082;28;20057;-47
2023/01/26 08:31:41;;;;;;;0.25;0.20;;;;;;;;;;4148297;28;20058;-49
2023/01/26 08:33:43;;;;;;;0.57;0.20;;;;;;;;;;4163705;28;20386;-47
2023/01/26 08:35:44;;;;;;;0.30;0.30;;;;;;;;;;4160155;28;20059;-47
2023/01/26 08:37:46;;;;;;;0.50;0.40;;;;;;;;;;4161152;28;20557;-52
2023/01/26 08:39:47;;;;;;;1.17;0.30;;;;;;;;;;4155483;28;20111;-45
2023/01/26 08:41:49;;;;;;;1.42;0.52;;;;;;;;;;4157188;28;20420;-48
2023/01/26 08:43:51;;;;;;;2.45;0.22;;;;;;;;;;4156296;28;20057;-51
2023/01/26 08:45:53;;;;;;;1.92;0.43;;;;;;;;;;4155566;28;22236;-45
2023/01/26 08:47:54;;;;;;;1.70;0.20;;;;;;;;;;4162621;28;20067;-48
2023/01/26 08:49:55;;;;;;;0.32;0.30;;;;;;;;;;4162237;28;20090;-44
2023/01/26 08:51:57;;;;;;;0.30;0.20;;;;;;;;;;4159060;28;20149;-45
2023/01/26 08:53:58;;;;;;;0.52;0.30;;;;;;;;;;4160568;28;20056;-45
2023/01/26 08:56:04;;;;;;;0.85;0.30;;;;;;;;;;4162548;28;20053;-43
2023/01/26 08:58:05;;;;;;;1.30;0.40;;;;;;;;;;4161195;28;20102;-46
2023/01/26 09:00:07;;;;;;;0.68;0.40;;;;;;;;;;4151015;28;20061;-46
2023/01/26 09:02:09;;;;;;;0.60;0.30;;;;;;;;;;4148447;28;20061;-48
2023/01/26 09:04:10;;;;;;;2.72;0.28;;;;;;;;;;4138741;28;20083;-48
2023/01/26 09:06:13;;;;;;;1.23;0.30;;;;;;;;;;4156119;28;20052;-45
2023/01/26 09:08:14;;;;;;;2.67;0.40;;;;;;;;;;4160157;28;20056;-45
2023/01/26 09:10:16;;;;;;;0.85;0.30;;;;;;;;;;4168699;28;20053;-45
2023/01/26 09:12:17;;;;;;;3.95;0.40;;;;;;;;;;4162209;28;20445;-48
2023/01/26 09:14:19;;;;;;;1.27;0.77;;;;;;;;;;4156152;28;20095;-47
2023/01/26 09:16:21;;;;;;;0.68;0.32;;;;;;;;;;4162030;28;20057;-45
2023/01/26 09:18:22;;;;;;;0.75;0.30;;;;;;;;;;4161803;28;20049;-46
2023/01/26 09:20:24;;;;;;;0.55;0.30;;;;;;;;;;4139003;28;20068;-45
2023/01/26 09:22:25;;;;;;;1.63;0.55;;;;;;;;;;4145782;28;20099;-48
2023/01/26 09:24:26;;;;;;;1.70;0.35;;;;;;;;;;4145963;28;21132;-46
2023/01/26 09:26:29;;;;;;;1.23;0.40;;;;;;;;;;4145450;28;20131;-45
2023/01/26 09:28:30;;;;;;;2.78;0.30;;;;;;;;;;4142912;28;20115;-49
2023/01/26 09:30:32;;;;;;;0.50;0.20;;;;;;;;;;4122971;28;20065;-47
2023/01/26 09:32:33;;;;;;;1.58;0.60;;;;;;;;;;4139377;28;20115;-48
2023/01/26 09:34:35;;;;;;;1.10;0.25;;;;;;;;;;4136397;28;20064;-48
2023/01/26 09:36:36;;;;;;;0.47;0.20;;;;;;;;;;4145327;28;20057;-47
2023/01/26 09:38:38;;;;;;;1.98;0.30;;;;;;;;;;4143351;28;20072;-51
2023/01/26 09:41:02;;;;;;;2.15;0.50;;;;;;;;;;4140337;28;20139;-47
2023/01/26 09:43:28;;;;;;;0.47;0.17;;;;;;;;;;4106604;28;20124;-47
2023/01/26 09:45:33;;;;;;;1.40;0.40;;;;;;;;;;4137401;28;20052;-46
2023/01/26 09:48:07;;;;;;;2.00;0.57;;;;;;;;;;4123739;28;20463;-48
2023/01/26 09:50:12;;;;;;;1.70;0.25;;;;;;;;;;4139887;28;20095;-46
2023/01/26 09:52:21;;;;;;;3.72;0.35;;;;;;;;;;4125075;28;20081;-45
2023/01/26 09:55:01;;;;;;;1.30;0.30;;;;;;;;;;4142831;28;20547;-48
2023/01/26 09:57:24;;;;;;;1.17;0.20;;;;;;;;;;4109640;28;20060;-49
2023/01/26 09:59:33;;;;;;;3.58;0.22;;;;;;;;;;4119880;28;20089;-46
2023/01/26 10:01:42;;;;;;;1.55;0.40;;;;;;;;;;4140401;28;20658;-50
2023/01/26 10:03:52;;;;;;;2.25;0.40;;;;;;;;;;4113114;28;20057;-47
2023/01/26 10:05:59;;;;;;;1.20;0.50;;;;;;;;;;4116476;28;20053;-48
2023/01/26 10:08:23;;;;;;;2.58;0.93;;;;;;;;;;4127832;28;20058;-48
2023/01/26 10:10:36;;;;;;;4.78;0.60;;;;;;;;;;4139080;28;20057;-47
2023/01/26 10:12:37;;;;;;;1.10;0.32;;;;;;;;;;4104880;28;20640;-46
2023/01/26 10:14:44;;;;;;;0.68;0.40;;;;;;;;;;4124880;28;20058;-49
2023/01/26 10:16:48;;;;;;;1.02;0.50;;;;;;;;;;4127708;28;20058;-48
2023/01/26 10:19:05;;;;;;;1.55;0.43;;;;;;;;;;4123976;28;20456;-50
2023/01/26 10:21:08;;;;;;;1.85;0.50;;;;;;;;;;4128679;28;20132;-47
2023/01/26 10:23:22;;;;;;;1.00;0.35;;;;;;;;;;4161277;28;21006;-48
2023/01/26 10:25:32;;;;;;;1.90;0.80;;;;;;;;;;4156679;28;20471;-48
2023/01/26 10:27:34;;;;;;;1.48;0.40;;;;;;;;;;4154864;28;20061;-47
2023/01/26 10:29:35;;;;;;;1.17;0.43;;;;;;;;;;4146829;28;20057;-46
2023/01/26 10:31:36;;;;;;;2.80;0.50;;;;;;;;;;4142488;28;20392;-44
2023/01/26 10:33:49;;;;;;;1.00;0.40;;;;;;;;;;4157841;28;20419;-47
2023/01/26 10:35:50;;;;;;;4.53;0.60;;;;;;;;;;4150695;28;20056;-46
2023/01/26 10:37:51;;;;;;;1.27;0.50;;;;;;;;;;4150843;28;20167;-47
2023/01/26 10:40:02;;;;;;;1.05;0.55;;;;;;;;;;4157090;28;20052;-48
2023/01/26 10:42:04;;;;;;;1.40;0.50;;;;;;;;;;4157528;28;20064;-46
2023/01/26 10:44:08;;;;;;;2.28;0.40;;;;;;;;;;4162932;28;20064;-44
2023/01/26 10:46:22;;;;;;;1.38;0.38;;;;;;;;;;4153937;28;20099;-47
2023/01/26 10:48:25;;;;;;;5.88;0.63;;;;;;;;;;4164669;28;20068;-46
2023/01/26 10:50:26;;;;;;;0.30;0.28;;;;;;;;;;4152168;28;20057;-48
2023/01/26 10:52:28;;;;;;;0.70;0.40;;;;;;;;;;4165865;28;20061;-46
2023/01/26 10:54:29;;;;;;;1.20;0.50;;;;;;;;;;4165289;28;20130;-47
2023/01/26 10:56:33;;;;;;;0.75;0.50;;;;;;;;;;4153592;28;20099;-45
2023/01/26 10:58:40;;;;;;;3.65;0.60;;;;;;;;;;4160004;28;20068;-48
2023/01/26 11:00:41;;;;;;;0.70;0.50;;;;;;;;;;4149430;28;20122;-48
2023/01/26 11:02:49;;;;;;;0.88;0.50;;;;;;;;;;4156296;28;20057;-45
2023/01/26 11:05:05;;;;;;;1.67;0.32;;;;;;;;;;4157674;28;20570;-45
2023/01/26 11:07:27;;;;;;;2.83;0.68;;;;;;;;;;4158960;28;20946;-46
2023/01/26 11:09:30;;;;;;;0.77;0.50;;;;;;;;;;4160378;28;20461;-49
2023/01/26 11:11:31;;;;;;;4.05;0.47;;;;;;;;;;4167449;28;20053;-48
2023/01/26 11:13:32;;;;;;;0.75;0.30;;;;;;;;;;4155691;28;20057;-48
2023/01/26 11:15:38;;;;;;;1.98;0.32;;;;;;;;;;4156427;28;20223;-47
2023/01/26 11:17:49;;;;;;;1.15;0.38;;;;;;;;;;4165193;28;20060;-48
2023/01/26 11:20:27;;;;;;;2.72;0.43;;;;;;;;;;4162293;28;20785;-46
2023/01/26 11:22:53;;;;;;;1.55;0.28;;;;;;;;;;4137848;28;20506;-47
2023/01/26 11:25:16;;;;;;;0.40;0.30;;;;;;;;;;4150713;28;20473;-46
2023/01/26 11:27:20;;;;;;;0.82;0.50;;;;;;;;;;4147177;28;20061;-47
2023/01/26 11:29:51;;;;;;;1.77;0.40;;;;;;;;;;4153524;28;20052;-46
2023/01/26 11:31:55;;;;;;;2.15;0.28;;;;;;;;;;4151040;28;20454;-47
2023/01/26 11:34:12;;;;;;;0.90;0.50;;;;;;;;;;4152275;28;20064;-46
2023/01/26 11:36:38;;;;;;;0.75;0.30;;;;;;;;;;4173469;28;20044;-47
2023/01/26 11:38:41;;;;;;;0.65;0.35;;;;;;;;;;4163117;28;20105;-51
2023/01/26 11:40:42;;;;;;;2.35;0.30;;;;;;;;;;4163259;28;20122;-45
2023/01/26 11:42:55;;;;;;;0.88;0.43;;;;;;;;;;4163816;28;20670;-46
2023/01/26 11:45:22;;;;;;;1.23;0.40;;;;;;;;;;4171741;28;20229;-46
2023/01/26 11:47:54;;;;;;;0.82;0.30;;;;;;;;;;4157969;28;20053;-45
2023/01/26 11:50:15;;;;;;;0.75;0.30;;;;;;;;;;4163996;28;20053;-46
2023/01/26 11:52:45;;;;;;;3.80;0.50;;;;;;;;;;4160750;28;20048;-48
2023/01/26 11:55:08;;;;;;;2.80;0.20;;;;;;;;;;4152112;28;20104;-45
2023/01/26 11:57:38;;;;;;;0.95;0.32;;;;;;;;;;4153438;28;22081;-47
2023/01/26 11:59:47;;;;;;;0.75;0.30;;;;;;;;;;4126524;28;20056;-45
2023/01/26 12:02:23;;;;;;;1.88;0.30;;;;;;;;;;4144619;28;20049;-44
2023/01/26 12:04:24;;;;;;;1.48;0.40;;;;;;;;;;4156252;28;20052;-46
2023/01/26 12:06:38;;;;;;;1.75;0.40;;;;;;;;;;4160275;28;20162;-46
2023/01/26 12:08:44;;;;;;;0.95;0.30;;;;;;;;;;4156204;28;20205;-45
2023/01/26 12:10:58;;;;;;;1.00;0.43;;;;;;;;;;4157433;28;20053;-48
2023/01/26 12:13:07;;;;;;;0.50;0.20;;;;;;;;;;4159289;28;21058;-44
2023/01/26 12:15:16;;;;;;;2.17;0.50;;;;;;;;;;4165906;28;20130;-44
2023/01/26 12:17:23;;;;;;;1.50;0.30;;;;;;;;;;4165695;28;20111;-49
2023/01/26 12:19:35;;;;;;;0.85;0.30;;;;;;;;;;4149672;28;20474;-47
2023/01/26 12:21:42;;;;;;;1.90;0.40;;;;;;;;;;4154086;28;20059;-46
2023/01/26 12:23:50;;;;;;;1.83;0.40;;;;;;;;;;4148548;28;20064;-44
2023/01/26 12:25:59;;;;;;;2.25;0.25;;;;;;;;;;4153609;28;20134;-48
2023/01/26 12:28:11;;;;;;;0.90;0.28;;;;;;;;;;4152490;28;20103;-47
2023/01/26 12:30:25;;;;;;;0.65;0.30;;;;;;;;;;4137076;28;20700;-49
2023/01/26 12:32:26;;;;;;;1.90;0.22;;;;;;;;;;4162239;28;20397;-43
2023/01/26 12:34:29;;;;;;;2.60;0.30;;;;;;;;;;4163666;28;20061;-46
2023/01/26 12:36:58;;;;;;;2.28;0.22;;;;;;;;;;4156244;28;20500;-46
2023/01/26 12:39:10;;;;;;;0.30;0.20;;;;;;;;;;4164198;28;20745;-48
2023/01/26 12:41:17;;;;;;;0.90;0.25;;;;;;;;;;4158221;28;20437;-44
2023/01/26 12:44:11;;;;;;;1.02;0.30;;;;;;;;;;4161265;28;20057;-46
2023/01/26 12:46:14;;;;;;;0.50;0.20;;;;;;;;;;4136751;28;20127;-45
2023/01/26 12:48:23;;;;;;;2.72;0.20;;;;;;;;;;4154906;28;20409;-47
2023/01/26 12:50:38;;;;;;;0.25;0.20;;;;;;;;;;4161517;28;20057;-45
2023/01/26 12:52:45;;;;;;;0.45;0.32;;;;;;;;;;4151391;28;20508;-46
2023/01/26 12:55:09;;;;;;;0.60;0.20;;;;;;;;;;4152958;28;20134;-47
2023/01/26 12:57:15;;;;;;;0.40;0.20;;;;;;;;;;4148810;28;21169;-47
2023/01/26 12:59:27;;;;;;;1.05;0.30;;;;;;;;;;4146986;28;20106;-46
2023/01/26 13:01:39;;;;;;;1.15;0.32;;;;;;;;;;4149801;28;20061;-45
2023/01/26 13:03:54;;;;;;;1.65;0.35;;;;;;;;;;4152730;28;20053;-47
2023/01/26 13:06:00;;;;;;;0.55;0.30;;;;;;;;;;4152437;28;20119;-50
2023/01/26 13:08:39;;;;;;;1.77;0.17;;;;;;;;;;4151366;28;20791;-49
2023/01/26 13:10:45;;;;;;;0.50;0.13;;;;;;;;;;4155752;28;20080;-44
2023/01/26 13:12:55;;;;;;;0.52;0.28;;;;;;;;;;4142314;28;20053;-45
2023/01/26 13:14:59;;;;;;;;;;;;;;;;;;4158583;28;20057;-45
2023/01/26 13:17:40;;;;;;;0.47;0.30;;;;;;;;;;4163989;28;19928;-46
2023/01/26 13:19:41;;;;;;;0.45;0.22;;;;;;;;;;4151708;28;21101;-44
2023/01/26 13:21:43;;;;;;;1.33;0.30;;;;;;;;;;4166833;28;20114;-45
2023/01/26 13:23:44;;;;;;;1.17;0.40;;;;;;;;;;4157579;28;20612;-44